createdAt,value
2022-08-26T00:01:57.136Z,19.60
2022-08-26T00:06:55.796Z,19.50
2022-08-26T00:11:54.515Z,19.40
2022-08-26T00:16:52.001Z,19.40
2022-08-26T00:21:52.861Z,19.30
2022-08-26T00:26:51.691Z,19.20
2022-08-26T00:31:49.115Z,19.20
2022-08-26T00:36:46.735Z,19.20
2022-08-26T00:41:44.200Z,19.00
2022-08-26T00:46:49.091Z,19.00
2022-08-26T00:51:54.571Z,18.90
2022-08-26T00:57:16.349Z,18.80
2022-08-26T01:02:19.903Z,18.80
2022-08-26T01:07:18.122Z,18.60
2022-08-26T01:12:16.693Z,18.40
2022-08-26T01:17:19.566Z,18.40
2022-08-26T01:22:33.686Z,18.30
2022-08-26T01:27:33.554Z,18.40
2022-08-26T01:32:33.566Z,18.40
2022-08-26T01:37:36.473Z,18.30
2022-08-26T01:42:34.677Z,18.30
2022-08-26T01:47:34.885Z,18.20
2022-08-26T01:52:36.030Z,18.30
2022-08-26T01:57:36.179Z,18.10
2022-08-26T02:02:33.403Z,18.10
2022-08-26T02:07:31.933Z,18.00
2022-08-26T02:12:30.923Z,18.10
2022-08-26T02:17:37.439Z,18.20
2022-08-26T02:22:36.519Z,18.20
2022-08-26T02:27:35.701Z,18.30
2022-08-26T02:32:33.088Z,18.40
2022-08-26T02:37:32.618Z,18.50
2022-08-26T02:42:31.374Z,18.50
2022-08-26T02:47:29.234Z,18.40
2022-08-26T02:52:29.883Z,18.30
2022-08-26T02:57:27.274Z,18.20
2022-08-26T03:02:24.670Z,18.00
2022-08-26T03:07:22.163Z,18.00
2022-08-26T03:12:20.553Z,17.90
2022-08-26T03:17:17.919Z,17.90
2022-08-26T03:22:15.408Z,17.80
2022-08-26T03:27:12.853Z,17.70
2022-08-26T03:32:11.773Z,17.70
2022-08-26T03:37:10.624Z,17.70
2022-08-26T03:42:09.488Z,17.50
2022-08-26T03:47:08.469Z,17.50
2022-08-26T03:52:07.004Z,17.50
2022-08-26T03:57:07.159Z,17.50
2022-08-26T04:02:11.324Z,17.40
2022-08-26T04:07:10.793Z,17.30
2022-08-26T04:12:11.394Z,17.50
2022-08-26T04:17:08.663Z,17.50
2022-08-26T04:22:06.014Z,17.40
2022-08-26T04:27:03.744Z,17.50
2022-08-26T04:32:02.164Z,17.40
2022-08-26T04:36:59.563Z,17.30
2022-08-26T04:41:57.793Z,17.30
2022-08-26T04:46:56.474Z,17.40
2022-08-26T04:51:54.992Z,17.50
2022-08-26T04:56:53.429Z,17.60
2022-08-26T05:01:53.104Z,17.70
2022-08-26T05:06:50.599Z,17.80
2022-08-26T05:11:52.207Z,17.90
2022-08-26T05:16:49.692Z,18.10
2022-08-26T05:21:48.798Z,18.60
2022-08-26T05:26:48.152Z,18.90
2022-08-26T05:31:45.590Z,19.10
2022-08-26T05:36:42.963Z,19.40
2022-08-26T05:41:43.075Z,19.40
2022-08-26T05:46:42.770Z,19.60
2022-08-26T05:51:45.351Z,19.70
2022-08-26T05:56:43.157Z,19.80
2022-08-26T06:01:41.070Z,20.20
2022-08-26T06:06:42.676Z,20.60
2022-08-26T06:11:40.505Z,22.50
2022-08-26T06:16:41.222Z,24.50
2022-08-26T06:21:40.742Z,25.50
2022-08-26T06:26:38.455Z,26.00
2022-08-26T06:31:40.425Z,25.20
2022-08-26T06:36:39.606Z,25.30
2022-08-26T06:41:43.153Z,25.90
2022-08-26T06:46:42.145Z,25.40
2022-08-26T06:51:42.542Z,23.90
2022-08-26T06:56:42.880Z,23.10
2022-08-26T07:01:45.882Z,22.90
2022-08-26T07:06:49.571Z,23.20
2022-08-26T07:11:46.810Z,23.20
2022-08-26T07:16:47.615Z,23.90
2022-08-26T07:21:44.933Z,26.10
2022-08-26T07:26:43.016Z,28.80
2022-08-26T07:31:42.787Z,30.20
2022-08-26T07:36:40.325Z,31.10
2022-08-26T07:41:38.036Z,31.30
2022-08-26T07:46:36.397Z,32.40
2022-08-26T07:51:34.259Z,32.90
2022-08-26T07:56:31.786Z,33.70
2022-08-26T08:01:33.125Z,33.30
2022-08-26T08:06:30.502Z,34.10
2022-08-26T08:11:31.262Z,33.80
2022-08-26T08:16:32.219Z,33.90
2022-08-26T08:21:30.726Z,33.90
2022-08-26T08:26:28.446Z,34.00
2022-08-26T08:31:56.003Z,33.80
2022-08-26T08:36:46.759Z,34.30
2022-08-26T08:42:04.597Z,33.60
2022-08-26T08:47:10.535Z,34.20
2022-08-26T08:52:39.372Z,34.10
2022-08-26T08:57:55.295Z,34.30
2022-08-26T09:03:42.129Z,33.80
2022-08-26T09:08:41.263Z,33.60
2022-08-26T09:13:40.164Z,33.20
2022-08-26T09:18:51.249Z,33.40
2022-08-26T09:23:49.783Z,33.70
2022-08-26T09:28:57.509Z,32.30
2022-08-26T09:34:22.736Z,31.30
2022-08-26T09:39:30.995Z,30.90
2022-08-26T09:44:28.958Z,32.00
2022-08-26T09:49:36.475Z,32.40
2022-08-26T09:54:34.486Z,32.20
2022-08-26T09:59:31.945Z,32.00
2022-08-26T10:04:31.453Z,30.40
2022-08-26T10:09:33.515Z,30.30
2022-08-26T10:14:39.978Z,31.50
2022-08-26T10:19:56.814Z,31.70
2022-08-26T10:24:59.429Z,31.20
2022-08-26T10:30:05.415Z,31.20
2022-08-26T10:35:06.748Z,30.80
2022-08-26T10:40:23.518Z,29.80
2022-08-26T10:45:25.722Z,29.20
2022-08-26T10:50:30.914Z,29.10
2022-08-26T10:55:34.949Z,28.90
2022-08-26T11:00:58.448Z,29.10
2022-08-26T11:06:18.380Z,29.10
2022-08-26T11:11:42.220Z,28.60
2022-08-26T11:16:44.657Z,28.70
2022-08-26T11:21:52.301Z,28.50
2022-08-26T11:26:56.072Z,28.50
2022-08-26T11:31:56.512Z,28.40
2022-08-26T11:36:58.561Z,28.50
2022-08-26T11:42:03.654Z,28.50
2022-08-26T11:47:03.274Z,28.60
2022-08-26T11:52:09.460Z,28.60
2022-08-26T11:57:12.300Z,28.60
2022-08-26T12:02:17.767Z,28.60
2022-08-26T12:07:16.511Z,28.30
2022-08-26T12:12:25.941Z,28.50
2022-08-26T12:17:28.191Z,28.50
2022-08-26T12:22:25.385Z,28.60
2022-08-26T12:27:42.021Z,28.80
2022-08-26T12:32:51.088Z,28.60
2022-08-26T12:37:56.220Z,28.60
2022-08-26T12:42:54.141Z,28.40
2022-08-26T12:48:15.224Z,28.50
2022-08-26T12:53:12.534Z,28.40
2022-08-26T12:58:15.960Z,28.50
2022-08-26T13:03:34.661Z,28.40
2022-08-26T13:08:32.624Z,28.20
2022-08-26T13:13:30.012Z,28.20
2022-08-26T13:18:27.414Z,28.30
2022-08-26T13:23:25.534Z,28.40
2022-08-26T13:28:22.837Z,28.30
2022-08-26T13:33:21.624Z,28.30
2022-08-26T13:38:33.147Z,28.30
2022-08-26T13:43:32.202Z,28.30
2022-08-26T13:48:29.851Z,28.30
2022-08-26T13:53:29.546Z,28.20
2022-08-26T13:58:28.143Z,28.40
2022-08-26T14:03:25.513Z,28.30
2022-08-26T14:08:23.711Z,28.40
2022-08-26T14:13:21.351Z,28.30
2022-08-26T14:18:22.587Z,28.30
2022-08-26T14:23:23.851Z,28.40
2022-08-26T14:28:21.452Z,28.40
2022-08-26T14:33:22.750Z,28.40
2022-08-26T14:38:20.064Z,28.40
2022-08-26T14:43:17.450Z,28.60
2022-08-26T14:48:14.930Z,28.50
2022-08-26T14:53:30.448Z,28.60
2022-08-26T14:58:28.542Z,28.50
2022-08-26T15:03:32.567Z,28.50
2022-08-26T15:08:29.870Z,28.50
2022-08-26T15:13:27.122Z,28.40
2022-08-26T15:18:24.409Z,28.30
2022-08-26T15:23:21.762Z,28.30
2022-08-26T15:28:19.232Z,28.40
2022-08-26T15:33:19.750Z,28.30
2022-08-26T15:38:18.186Z,28.30
2022-08-26T15:43:28.130Z,28.30
2022-08-26T15:48:26.371Z,28.20
2022-08-26T15:53:25.259Z,28.20
2022-08-26T15:58:23.241Z,28.20
2022-08-26T16:03:21.830Z,28.20
2022-08-26T16:08:19.220Z,28.30
2022-08-26T16:13:16.704Z,28.40
2022-08-26T16:18:15.763Z,28.50
2022-08-26T16:23:12.969Z,28.40
2022-08-26T16:28:11.621Z,28.20
2022-08-26T16:33:09.414Z,28.20
2022-08-26T16:38:08.247Z,28.20
2022-08-26T16:43:06.030Z,28.00
2022-08-26T16:48:04.119Z,27.80
2022-08-26T16:53:01.538Z,27.70
2022-08-26T16:57:59.692Z,27.60
2022-08-26T17:02:59.769Z,27.30
2022-08-26T17:07:59.270Z,27.10
2022-08-26T17:12:56.809Z,26.70
2022-08-26T17:17:55.209Z,26.30
2022-08-26T17:22:54.590Z,26.00
2022-08-26T17:27:51.872Z,25.80
2022-08-26T17:32:49.809Z,25.50
2022-08-26T17:37:47.740Z,25.30
2022-08-26T17:42:45.345Z,25.10
2022-08-26T17:47:42.820Z,24.90
2022-08-26T17:52:40.765Z,24.70
2022-08-26T17:57:40.878Z,24.60
2022-08-26T18:02:40.870Z,24.40
2022-08-26T18:07:44.081Z,24.30
2022-08-26T18:12:42.691Z,24.20
2022-08-26T18:17:40.418Z,24.00
2022-08-26T18:22:38.061Z,23.90
2022-08-26T18:27:36.591Z,23.80
2022-08-26T18:32:34.026Z,23.70
2022-08-26T18:37:31.876Z,23.50
2022-08-26T18:42:29.822Z,23.40
2022-08-26T18:47:27.162Z,23.30
2022-08-26T18:52:24.921Z,23.20
2022-08-26T18:57:22.209Z,23.00
2022-08-26T19:02:19.710Z,23.00
2022-08-26T19:07:21.012Z,22.90
2022-08-26T19:12:18.401Z,22.80
2022-08-26T19:17:15.742Z,22.70
2022-08-26T19:22:13.051Z,22.60
2022-08-26T19:27:14.596Z,22.50
2022-08-26T19:32:12.954Z,22.40
2022-08-26T19:37:10.462Z,22.30
2022-08-26T19:42:07.878Z,22.10
2022-08-26T19:47:07.309Z,21.90
2022-08-26T19:52:06.189Z,21.90
2022-08-26T19:57:04.681Z,21.80
2022-08-26T20:02:03.609Z,21.80
2022-08-26T20:07:03.325Z,21.70
2022-08-26T20:12:01.465Z,21.60
2022-08-26T20:16:58.845Z,21.30
2022-08-26T20:21:56.187Z,21.10
2022-08-26T20:26:53.894Z,21.10
2022-08-26T20:31:53.462Z,20.90
2022-08-26T20:36:51.338Z,21.00
2022-08-26T20:41:49.221Z,21.10
2022-08-26T20:46:46.791Z,21.00
2022-08-26T20:51:44.451Z,21.10
2022-08-26T20:56:41.818Z,20.90
2022-08-26T21:01:42.212Z,20.90
2022-08-26T21:06:40.496Z,20.80
2022-08-26T21:11:43.551Z,20.80
2022-08-26T21:16:41.735Z,20.70
2022-08-26T21:21:39.578Z,20.60
2022-08-26T21:26:37.419Z,20.60
2022-08-26T21:31:35.240Z,20.30
2022-08-26T21:36:32.611Z,20.30
2022-08-26T21:41:30.036Z,20.50
2022-08-26T21:46:29.376Z,20.40
2022-08-26T21:51:29.867Z,20.30
2022-08-26T21:56:29.258Z,20.30
2022-08-26T22:01:32.080Z,20.20
2022-08-26T22:06:31.477Z,20.10
2022-08-26T22:11:29.557Z,20.20
2022-08-26T22:16:28.896Z,20.20
2022-08-26T22:21:28.481Z,20.10
2022-08-26T22:26:28.907Z,20.10
2022-08-26T22:31:29.505Z,20.10
2022-08-26T22:36:43.225Z,20.00
2022-08-26T22:41:43.422Z,19.80
2022-08-26T22:46:42.093Z,19.80
2022-08-26T22:51:39.501Z,19.80
2022-08-26T22:56:37.681Z,19.70
2022-08-26T23:01:40.140Z,19.70
2022-08-26T23:06:40.311Z,19.50
2022-08-26T23:11:42.259Z,19.30
2022-08-26T23:16:41.802Z,19.30
2022-08-26T23:21:40.342Z,19.30
2022-08-26T23:26:39.378Z,19.30
2022-08-26T23:31:38.910Z,19.20
2022-08-26T23:36:36.325Z,19.20
2022-08-26T23:41:35.994Z,19.10
2022-08-26T23:46:34.744Z,19.00
2022-08-26T23:51:50.374Z,19.00
2022-08-26T23:56:47.622Z,19.10
